Time;durP1;ratioP1;P1;durP2;ratioP2;P2;SDS_P1;SDS_P2;PMS_P1;PMS_P2;Temp;Humidity;BMP_temperature;BMP_pressure;BME280_temperature;BME280_humidity;BME280_pressure;Samples;Min_cycle;Max_cycle;Signal;HPM_P1;HPM_P2
2022/07/25 00:00:46;;;;;;;;;;;;;;;20.41;51.35;99783.03;5055555;28;19924;-65
2022/07/25 00:03:16;;;;;;;;;;;;;;;20.43;50.80;99770.84;5055456;28;19990;-65
2022/07/25 00:05:46;;;;;;;;;;;;;;;20.50;50.33;99770.53;5055531;28;19925;-65
2022/07/25 00:08:14;;;;;;;;;;;;;;;20.51;50.20;99774.84;5055322;28;19925;-65
2022/07/25 00:10:43;;;;;;;;;;;;;;;20.54;50.28;99773.84;5055061;28;20383;-65
2022/07/25 00:13:11;;;;;;;;;;;;;;;20.54;50.48;99768.66;5054890;28;19960;-65
2022/07/25 00:15:40;;;;;;;;;;;;;;;20.57;50.80;99769.38;5054895;28;20012;-65
2022/07/25 00:18:08;;;;;;;;;;;;;;;20.53;50.63;99766.97;5055204;28;20436;-65
2022/07/25 00:20:38;;;;;;;;;;;;;;;20.53;51.57;99766.97;5054837;28;19924;-65
2022/07/25 00:23:06;;;;;;;;;;;;;;;20.31;52.22;99766.13;5055132;28;19925;-65
2022/07/25 00:25:35;;;;;;;;;;;;;;;20.06;52.66;99764.44;5054698;28;19979;-65
2022/07/25 00:28:04;;;;;;;;;;;;;;;19.97;53.04;99766.53;5054658;28;19983;-65
2022/07/25 00:30:32;;;;;;;;;;;;;;;19.97;53.04;99761.34;5055281;28;19951;-65
2022/07/25 00:33:01;;;;;;;;;;;;;;;20.05;52.66;99755.00;5055093;28;20329;-65
2022/07/25 00:35:29;;;;;;;;;;;;;;;20.18;52.55;99754.53;5054592;28;19960;-65
2022/07/25 00:37:59;;;;;;;;;;;;;;;20.23;52.29;99757.81;5054604;28;19925;-65
2022/07/25 00:40:28;;;;;;;;;;;;;;;20.24;52.27;99755.16;5054006;28;19925;-65
2022/07/25 00:42:56;;;;;;;;;;;;;;;20.26;52.20;99747.31;5054468;28;19964;-65
2022/07/25 00:45:24;;;;;;;;;;;;;;;20.24;52.39;99743.94;5054327;28;19925;-65
2022/07/25 00:47:53;;;;;;;;;;;;;;;20.15;52.71;99746.88;5054705;28;19928;-65
2022/07/25 00:50:21;;;;;;;;;;;;;;;20.07;52.72;99741.97;5054728;28;20271;-65
2022/07/25 00:52:50;;;;;;;;;;;;;;;19.96;52.80;99750.13;5054296;28;19929;-65
2022/07/25 00:55:20;;;;;;;;;;;;;;;19.95;52.83;99747.63;5054066;28;20402;-65
2022/07/25 00:57:49;;;;;;;;;;;;;;;19.86;53.12;99748.81;5054613;28;19925;-65
2022/07/25 01:00:18;;;;;;;;;;;;;;;19.82;53.21;99747.22;5054518;28;19925;-65
2022/07/25 01:02:47;;;;;;;;;;;;;;;19.82;53.27;99739.44;5054772;28;19931;-65
2022/07/25 01:05:18;;;;;;;;;;;;;;;19.84;53.27;99748.00;5054085;28;19932;-65
2022/07/25 01:07:47;;;;;;;;;;;;;;;19.63;53.62;99740.19;5054378;28;20333;-65
2022/07/25 01:10:15;;;;;;;;;;;;;;;19.39;54.24;99747.09;5054334;28;19955;-65
2022/07/25 01:12:47;;;;;;;;;;;;;;;19.25;54.59;99738.94;5053989;28;19979;-65
2022/07/25 01:15:16;;;;;;;;;;;;;;;19.15;55.05;99737.56;5054279;28;19975;-65
2022/07/25 01:17:45;;;;;;;;;;;;;;;19.13;55.23;99739.34;5054196;28;19925;-65
2022/07/25 01:20:16;;;;;;;;;;;;;;;19.07;55.27;99739.59;5053094;28;19929;-65
2022/07/25 01:22:46;;;;;;;;;;;;;;;19.05;55.50;99736.22;5053915;28;19987;-65
2022/07/25 01:25:14;;;;;;;;;;;;;;;19.05;55.09;99739.63;5053835;28;19925;-65
2022/07/25 01:27:44;;;;;;;;;;;;;;;19.01;55.09;99734.59;5053772;28;20413;-65
2022/07/25 01:30:17;;;;;;;;;;;;;;;19.01;55.22;99737.19;5054439;28;20353;-65
2022/07/25 01:32:46;;;;;;;;;;;;;;;19.02;55.23;99733.72;5053798;28;19979;-65
2022/07/25 01:35:15;;;;;;;;;;;;;;;19.02;55.11;99733.72;5053780;28;19925;-65
2022/07/25 01:37:44;;;;;;;;;;;;;;;19.02;55.24;99736.31;5054259;28;20302;-65
2022/07/25 01:40:14;;;;;;;;;;;;;;;18.99;55.49;99726.06;5053796;28;19968;-65
2022/07/25 01:42:42;;;;;;;;;;;;;;;18.94;55.52;99738.28;5053678;28;19931;-65
2022/07/25 01:45:12;;;;;;;;;;;;;;;18.85;55.63;99723.94;5053677;28;20023;-65
2022/07/25 01:47:40;;;;;;;;;;;;;;;18.87;55.61;99735.06;5053534;28;19931;-65
2022/07/25 01:50:09;;;;;;;;;;;;;;;18.90;55.57;99732.41;5053951;28;19929;-65
2022/07/25 01:52:39;;;;;;;;;;;;;;;18.89;55.75;99735.00;5055133;28;19925;-65
2022/07/25 01:55:08;;;;;;;;;;;;;;;18.99;55.35;99733.81;5056379;28;19924;-65
2022/07/25 01:57:39;;;;;;;;;;;;;;;19.02;55.21;99731.13;5057507;28;19924;-65
2022/07/25 02:00:16;;;;;;;;;;;;;;;19.05;55.00;99733.63;5057843;28;20272;-65
2022/07/25 02:02:45;;;;;;;;;;;;;;;19.08;54.71;99741.25;5057460;28;19993;-65
2022/07/25 02:05:15;;;;;;;;;;;;;;;19.11;54.45;99725.63;5057443;28;19971;-65
2022/07/25 02:07:44;;;;;;;;;;;;;;;19.11;54.48;99726.50;5057592;28;20367;-65
2022/07/25 02:10:13;;;;;;;;;;;;;;;19.17;54.53;99725.44;5057321;28;20020;-65
2022/07/25 02:12:41;;;;;;;;;;;;;;;19.17;54.31;99725.44;5057260;28;19970;-65
2022/07/25 02:15:10;;;;;;;;;;;;;;;19.17;54.41;99728.03;5057296;28;19924;-65
2022/07/25 02:17:38;;;;;;;;;;;;;;;19.03;54.90;99732.81;5057085;28;20414;-65
2022/07/25 02:20:07;;;;;;;;;;;;;;;18.95;54.79;99730.50;5057472;28;19957;-65
2022/07/25 02:22:36;;;;;;;;;;;;;;;18.98;55.15;99734.72;5057073;28;19929;-65
2022/07/25 02:25:06;;;;;;;;;;;;;;;18.98;54.75;99729.56;5057351;28;19935;-65
2022/07/25 02:27:35;;;;;;;;;;;;;;;18.95;54.52;99724.47;5057051;28;19967;-65
2022/07/25 02:30:04;;;;;;;;;;;;;;;19.01;54.14;99729.44;5057034;28;19929;-65
2022/07/25 02:32:32;;;;;;;;;;;;;;;19.03;54.24;99727.63;5056957;28;19925;-65
2022/07/25 02:35:01;;;;;;;;;;;;;;;19.04;54.07;99731.91;5056819;28;19976;-65
2022/07/25 02:37:29;;;;;;;;;;;;;;;19.03;54.19;99727.63;5057205;28;19932;-65
2022/07/25 02:39:58;;;;;;;;;;;;;;;19.06;54.18;99730.13;5056821;28;19924;-65
2022/07/25 02:42:28;;;;;;;;;;;;;;;19.06;54.06;99727.53;5056783;28;19928;-65
2022/07/25 02:44:56;;;;;;;;;;;;;;;18.98;54.28;99729.56;5056759;28;19925;-65
2022/07/25 02:47:25;;;;;;;;;;;;;;;18.91;54.65;99728.06;5056669;28;20377;-65
2022/07/25 02:49:53;;;;;;;;;;;;;;;18.87;54.64;99726.47;5056561;28;19925;-65
2022/07/25 02:52:22;;;;;;;;;;;;;;;18.88;54.74;99735.94;5057202;28;19924;-65
2022/07/25 02:54:50;;;;;;;;;;;;;;;18.87;54.60;99736.81;5056714;28;20347;-65
2022/07/25 02:57:19;;;;;;;;;;;;;;;18.85;54.53;99738.59;5056105;28;20024;-66
2022/07/25 02:59:49;;;;;;;;;;;;;;;18.80;54.67;99736.19;5056341;28;19979;-66
2022/07/25 03:02:19;;;;;;;;;;;;;;;18.79;54.55;99733.66;5056398;28;20011;-66
2022/07/25 03:04:47;;;;;;;;;;;;;;;18.77;54.65;99735.41;5056169;28;19925;-66
2022/07/25 03:07:16;;;;;;;;;;;;;;;18.68;55.33;99732.25;5056848;28;19960;-66
2022/07/25 03:09:44;;;;;;;;;;;;;;;18.66;55.55;99735.78;5056426;28;19929;-66
2022/07/25 03:12:12;;;;;;;;;;;;;;;18.64;55.59;99735.81;5056530;28;19978;-66
2022/07/25 03:14:41;;;;;;;;;;;;;;;18.63;56.10;99739.31;5056045;28;19925;-66
2022/07/25 03:17:11;;;;;;;;;;;;;;;18.61;55.96;99735.09;5056109;28;19932;-66
2022/07/25 03:19:40;;;;;;;;;;;;;;;18.59;55.75;99732.56;5056559;28;19928;-66
2022/07/25 03:22:08;;;;;;;;;;;;;;;18.59;55.71;99736.88;5056032;28;19925;-66
2022/07/25 03:24:37;;;;;;;;;;;;;;;18.57;55.97;99739.50;5055908;28;19970;-69
2022/07/25 03:27:06;;;;;;;;;;;;;;;18.55;55.75;99741.31;5056181;28;19950;-69
2022/07/25 03:29:34;;;;;;;;;;;;;;;18.58;55.66;99741.22;5055762;28;19928;-69
2022/07/25 03:32:03;;;;;;;;;;;;;;;18.54;56.13;99739.63;5056113;28;20370;-69
2022/07/25 03:34:34;;;;;;;;;;;;;;;18.57;56.41;99742.09;5055977;28;20333;-69
2022/07/25 03:37:02;;;;;;;;;;;;;;;18.46;56.67;99745.91;5055837;28;19971;-69
2022/07/25 03:39:31;;;;;;;;;;;;;;;18.23;57.59;99753.50;5055771;28;20436;-69
2022/07/25 03:42:00;;;;;;;;;;;;;;;17.98;58.17;99753.41;5055911;28;20333;-69
2022/07/25 03:44:28;;;;;;;;;;;;;;;17.92;58.31;99754.41;5055512;28;19932;-68
2022/07/25 03:46:57;;;;;;;;;;;;;;;17.83;58.73;99759.84;5055481;28;19929;-68
2022/07/25 03:49:25;;;;;;;;;;;;;;;17.81;59.25;99760.78;5055769;28;19982;-68
2022/07/25 03:51:55;;;;;;;;;;;;;;;17.83;59.16;99753.84;5055588;28;19932;-68
2022/07/25 03:54:25;;;;;;;;;;;;;;;17.80;59.51;99759.94;5055727;28;19963;-69
2022/07/25 03:56:53;;;;;;;;;;;;;;;17.85;59.29;99758.06;5054884;28;19931;-69
2022/07/25 03:59:22;;;;;;;;;;;;;;;17.96;59.07;99756.03;5055370;28;19925;-69
2022/07/25 04:01:51;;;;;;;;;;;;;;;18.15;58.28;99756.31;5055162;28;19971;-69
2022/07/25 04:04:19;;;;;;;;;;;;;;;18.27;58.01;99755.94;5054486;28;19924;-69
2022/07/25 04:06:48;;;;;;;;;;;;;;;18.41;57.71;99753.78;5055157;28;20038;-69
2022/07/25 04:09:18;;;;;;;;;;;;;;;18.52;57.58;99751.72;5055118;28;19929;-69
2022/07/25 04:11:46;;;;;;;;;;;;;;;18.60;57.52;99760.09;5054993;28;19968;-69
2022/07/25 04:14:14;;;;;;;;;;;;;;;18.69;57.48;99749.44;5054698;28;19967;-69
2022/07/25 04:16:43;;;;;;;;;;;;;;;18.74;57.41;99757.91;5054381;28;19925;-69
2022/07/25 04:19:11;;;;;;;;;;;;;;;18.77;57.44;99750.94;5054885;28;19955;-69
2022/07/25 04:21:40;;;;;;;;;;;;;;;18.78;57.69;99758.66;5055431;28;19925;-69
2022/07/25 04:24:08;;;;;;;;;;;;;;;18.82;57.59;99744.72;5055174;28;19925;-69
2022/07/25 04:26:38;;;;;;;;;;;;;;;18.82;57.48;99749.06;5055388;28;20299;-69
2022/07/25 04:29:06;;;;;;;;;;;;;;;18.87;57.19;99749.75;5054759;28;20436;-69
2022/07/25 04:31:35;;;;;;;;;;;;;;;18.98;56.93;99750.25;5054574;28;20428;-69
2022/07/25 04:34:03;;;;;;;;;;;;;;;19.07;56.75;99749.94;5054627;28;19960;-69
2022/07/25 04:36:32;;;;;;;;;;;;;;;19.22;56.08;99757.16;5054575;28;19925;-69
2022/07/25 04:39:01;;;;;;;;;;;;;;;19.36;55.88;99758.38;5054552;28;19975;-69
2022/07/25 04:41:29;;;;;;;;;;;;;;;19.48;55.95;99762.31;5054419;28;19925;-69
2022/07/25 04:43:59;;;;;;;;;;;;;;;19.62;55.43;99754.91;5054564;28;19959;-69
2022/07/25 04:46:27;;;;;;;;;;;;;;;19.77;54.76;99754.31;5054980;28;19929;-69
2022/07/25 04:48:56;;;;;;;;;;;;;;;19.87;54.25;99760.84;5054362;28;19932;-69
2022/07/25 04:51:24;;;;;;;;;;;;;;;20.02;53.94;99755.09;5054287;28;20370;-69
2022/07/25 04:53:53;;;;;;;;;;;;;;;20.18;53.38;99750.16;5054582;28;19925;-69
2022/07/25 04:56:22;;;;;;;;;;;;;;;20.31;52.92;99747.97;5054565;28;19932;-69
2022/07/25 04:58:51;;;;;;;;;;;;;;;20.40;52.58;99750.19;5054219;28;20294;-69
2022/07/25 05:01:20;;;;;;;;;;;;;;;20.51;52.50;99742.84;5054699;28;20015;-69
2022/07/25 05:03:49;;;;;;;;;;;;;;;20.62;51.84;99744.09;5054985;28;19925;-69
2022/07/25 05:06:18;;;;;;;;;;;;;;;20.77;51.81;99749.56;5054380;28;20006;-69
2022/07/25 05:08:47;;;;;;;;;;;;;;;20.90;51.47;99741.22;5054032;28;19936;-69
2022/07/25 05:11:15;;;;;;;;;;;;;;;20.98;51.08;99743.50;5054394;28;19971;-69
2022/07/25 05:13:44;;;;;;;;;;;;;;;21.04;50.67;99744.06;5053945;28;20012;-69
2022/07/25 05:16:12;;;;;;;;;;;;;;;21.12;50.30;99746.38;5054093;28;20351;-69
2022/07/25 05:18:42;;;;;;;;;;;;;;;21.20;49.96;99739.13;5054297;28;19925;-69
2022/07/25 05:21:11;;;;;;;;;;;;;;;21.24;49.90;99746.69;5053892;28;19931;-69
2022/07/25 05:23:41;;;;;;;;;;;;;;;21.31;49.57;99740.34;5054222;28;20407;-69
2022/07/25 05:26:10;;;;;;;;;;;;;;;21.43;49.31;99731.16;5053956;28;19960;-69
2022/07/25 05:28:38;;;;;;;;;;;;;;;21.57;49.03;99730.56;5053859;28;19979;-69
2022/07/25 05:31:06;;;;;;;;;;;;;;;21.70;49.10;99734.28;5053847;28;20367;-69
2022/07/25 05:33:35;;;;;;;;;;;;;;;21.74;48.46;99735.84;5054341;28;19971;-69
2022/07/25 05:36:07;;;;;;;;;;;;;;;21.84;48.76;99737.09;5053661;28;19925;-69
2022/07/25 05:38:36;;;;;;;;;;;;;;;21.99;48.61;99741.63;5053797;28;19975;-69
2022/07/25 05:41:04;;;;;;;;;;;;;;;22.17;48.25;99742.53;5053666;28;19928;-70
2022/07/25 05:43:33;;;;;;;;;;;;;;;22.24;48.00;99741.34;5053928;28;19963;-69
2022/07/25 05:46:01;;;;;;;;;;;;;;;22.36;47.82;99736.38;5053617;28;19925;-69
2022/07/25 05:48:30;;;;;;;;;;;;;;;22.57;47.51;99743.16;5054238;28;20413;-69
2022/07/25 05:50:59;;;;;;;;;;;;;;;22.62;46.78;99746.44;5053612;28;19925;-69
2022/07/25 05:53:29;;;;;;;;;;;;;;;22.65;46.53;99743.66;5053786;28;20044;-69
2022/07/25 05:55:57;;;;;;;;;;;;;;;22.73;46.20;99742.44;5053544;28;19986;-69
2022/07/25 05:58:26;;;;;;;;;;;;;;;22.83;46.15;99744.50;5053412;28;19924;-69
2022/07/25 06:00:57;;;;;;;;;;;;;;;22.96;45.82;99742.97;5053540;28;19925;-69
2022/07/25 06:03:25;;;;;;;;;;;;;;;23.10;45.72;99739.69;5053437;28;19925;-69
2022/07/25 06:05:55;;;;;;;;;;;;;;;23.24;45.44;99747.63;5053475;28;19925;-69
2022/07/25 06:08:23;;;;;;;;;;;;;;;23.27;45.04;99742.28;5053694;28;19947;-69
2022/07/25 06:10:54;;;;;;;;;;;;;;;23.29;44.79;99741.28;5053680;28;20397;-69
2022/07/25 06:13:22;;;;;;;;;;;;;;;23.42;44.83;99736.28;5053711;28;19932;-69
2022/07/25 06:15:53;;;;;;;;;;;;;;;23.60;44.74;99731.88;5053589;28;19925;-69
2022/07/25 06:18:21;;;;;;;;;;;;;;;23.64;44.36;99729.03;5053318;28;19987;-69
2022/07/25 06:20:50;;;;;;;;;;;;;;;23.68;44.41;99738.34;5052013;28;20271;-69
2022/07/25 06:23:19;;;;;;;;;;;;;;;23.73;44.31;99728.53;5053909;28;19986;-69
2022/07/25 06:25:49;;;;;;;;;;;;;;;23.84;44.29;99728.81;5053348;28;19932;-69
2022/07/25 06:28:20;;;;;;;;;;;;;;;23.99;43.96;99727.13;5053233;28;19929;-69
2022/07/25 06:30:48;;;;;;;;;;;;;;;24.18;43.64;99721.78;5051723;28;19929;-69
2022/07/25 06:33:16;;;;;;;;;;;;;;;24.21;43.57;99721.59;5053083;28;19970;-69
2022/07/25 06:35:45;;;;;;;;;;;;;;;24.33;43.64;99716.53;5068600;28;20016;-69
2022/07/25 06:38:13;;;;;;;;;;;;;;;24.46;43.46;99719.28;5054079;28;19925;-70
2022/07/25 06:40:42;;;;;;;;;;;;;;;24.56;43.37;99715.22;5057311;28;20409;-69
2022/07/25 06:43:10;;;;;;;;;;;;;;;24.66;43.36;99719.00;5054956;28;20329;-69
2022/07/25 06:45:41;;;;;;;;;;;;;;;24.76;43.52;99722.75;5056721;28;19935;-69
2022/07/25 06:48:10;;;;;;;;;;;;;;;24.83;43.00;99711.06;5056989;28;20325;-69
2022/07/25 06:50:39;;;;;;;;;;;;;;;24.89;42.73;99710.69;5056517;28;19999;-69
2022/07/25 06:53:08;;;;;;;;;;;;;;;25.04;42.59;99707.19;5056521;28;19929;-69
2022/07/25 06:55:37;;;;;;;;;;;;;;;25.12;42.41;99706.72;5056413;28;19982;-69
2022/07/25 06:58:05;;;;;;;;;;;;;;;25.26;42.50;99704.97;5056135;28;19924;-69
2022/07/25 07:00:34;;;;;;;;;;;;;;;25.37;42.10;99700.84;5056660;28;19978;-69
2022/07/25 07:03:04;;;;;;;;;;;;;;;25.44;42.10;99691.69;5056666;28;19948;-69
2022/07/25 07:05:35;;;;;;;;;;;;;;;25.59;41.99;99698.63;5056269;28;19931;-69
2022/07/25 07:08:05;;;;;;;;;;;;;;;25.82;41.71;99698.88;5056585;28;20351;-69
2022/07/25 07:10:33;;;;;;;;;;;;;;;25.91;41.33;99687.81;5049562;28;20444;-69
2022/07/25 07:13:05;;;;;;;;;;;;;;;25.87;40.82;99688.13;5039735;28;19947;-69
2022/07/25 07:15:35;;;;;;;;;;;;;;;25.95;40.69;99685.88;5056092;28;20375;-69
2022/07/25 07:18:06;;;;;;;;;;;;;;;26.04;40.71;99687.03;5056349;28;20043;-69
2022/07/25 07:20:35;;;;;;;;;;;;;;;26.19;40.69;99681.72;5056452;28;19925;-69
2022/07/25 07:23:04;;;;;;;;;;;;;;;26.22;40.30;99676.28;5056274;28;19955;-69
2022/07/25 07:25:33;;;;;;;;;;;;;;;26.35;39.97;99677.16;5055931;28;19931;-69
2022/07/25 07:28:02;;;;;;;;;;;;;;;26.47;39.94;99678.13;5054889;28;19924;-69
2022/07/25 07:30:30;;;;;;;;;;;;;;;26.55;39.43;99676.69;5055685;28;19952;-69
2022/07/25 07:33:20;;;;;;;;;;;;;;;26.63;38.45;99684.84;5049656;28;19925;-69
2022/07/25 07:35:49;;;;;;;;;;;;;;;26.53;38.63;99675.13;5048335;28;20035;-68
2022/07/25 07:38:18;;;;;;;;;;;;;;;26.56;38.36;99670.50;5044319;28;19955;-68
2022/07/25 07:40:46;;;;;;;;;;;;;;;26.61;38.41;99671.03;5055444;28;19967;-68
2022/07/25 07:43:14;;;;;;;;;;;;;;;26.59;38.88;99675.53;5055451;28;19924;-68
2022/07/25 07:45:43;;;;;;;;;;;;;;;26.65;38.83;99670.84;5055606;28;20390;-69
2022/07/25 07:48:12;;;;;;;;;;;;;;;26.70;38.88;99663.50;5052166;28;20322;-69
2022/07/25 07:50:42;;;;;;;;;;;;;;;26.77;38.82;99659.56;5054500;28;19939;-69
2022/07/25 07:53:10;;;;;;;;;;;;;;;26.87;38.74;99663.25;5055580;28;20361;-69
2022/07/25 07:55:44;;;;;;;;;;;;;;;26.87;38.41;99658.00;5055249;28;19929;-68
2022/07/25 07:58:14;;;;;;;;;;;;;;;26.93;38.63;99654.97;5054922;28;19925;-67
2022/07/25 08:00:43;;;;;;;;;;;;;;;27.02;38.30;99656.94;5055260;28;19925;-69
2022/07/25 08:03:11;;;;;;;;;;;;;;;27.15;38.01;99656.00;5055483;28;19964;-68
2022/07/25 08:05:43;;;;;;;;;;;;;;;27.22;38.05;99653.81;5055159;28;20290;-69
2022/07/25 08:08:13;;;;;;;;;;;;;;;27.35;37.83;99652.03;5055491;28;19971;-69
2022/07/25 08:10:43;;;;;;;;;;;;;;;27.43;38.04;99651.47;5055424;28;19925;-68
2022/07/25 08:13:13;;;;;;;;;;;;;;;27.49;37.76;99656.31;5054978;28;19925;-68
2022/07/25 08:15:41;;;;;;;;;;;;;;;27.62;37.52;99647.47;5053542;28;19935;-69
2022/07/25 08:18:10;;;;;;;;;;;;;;;27.71;37.29;99641.59;5054925;28;19936;-68
2022/07/25 08:20:47;;;;;;;;;;;;;;;27.67;37.46;99632.22;5048421;28;19925;-71
2022/07/25 08:23:16;;;;;;;;;;;;;;;27.79;37.15;99644.47;5054824;28;19929;-69
2022/07/25 08:25:45;;;;;;;;;;;;;;;27.83;37.16;99635.41;5053824;28;20011;-69
2022/07/25 08:28:14;;;;;;;;;;;;;;;27.90;36.68;99634.06;5053696;28;19959;-67
2022/07/25 08:30:42;;;;;;;;;;;;;;;27.90;36.46;99626.19;5054477;28;20023;-68
2022/07/25 08:33:12;;;;;;;;;;;;;;;27.89;36.69;99632.38;5054966;28;19924;-67
2022/07/25 08:35:40;;;;;;;;;;;;;;;28.06;36.40;99625.06;5055134;28;19994;-69
2022/07/25 08:38:11;;;;;;;;;;;;;;;28.28;36.49;99625.16;5053360;28;19935;-70
2022/07/25 08:40:39;;;;;;;;;;;;;;;28.35;36.16;99627.22;5053293;28;19932;-70
2022/07/25 08:43:10;;;;;;;;;;;;;;;28.35;36.01;99626.38;5054403;28;20007;-69
2022/07/25 08:45:42;;;;;;;;;;;;;;;28.36;35.85;99612.31;5054133;28;20402;-69
2022/07/25 08:48:10;;;;;;;;;;;;;;;28.49;36.18;99613.06;5053639;28;19963;-68
2022/07/25 08:50:39;;;;;;;;;;;;;;;28.64;35.91;99617.19;5054616;28;19929;-68
2022/07/25 08:53:08;;;;;;;;;;;;;;;28.81;35.94;99613.28;5049442;28;19967;-68
2022/07/25 08:55:57;;;;;;;;;;;;;;;28.88;35.54;99612.69;5047108;28;19931;-69
2022/07/25 08:58:28;;;;;;;;;;;;;;;28.96;35.22;99607.66;5053374;28;20210;-69
2022/07/25 09:00:57;;;;;;;;;;;;;;;29.13;35.41;99599.31;5047101;28;19971;-70
